Time;durP1;ratioP1;P1;durP2;ratioP2;P2;SDS_P1;SDS_P2;PMS_P1;PMS_P2;Temp;Humidity;BMP_temperature;BMP_pressure;BME280_temperature;BME280_humidity;BME280_pressure;Samples;Min_cycle;Max_cycle;Signal;HPM_P1;HPM_P2
2022/04/01 00:01:40;;;;;;;;;;;;;;;21.55;43.58;96686.84;4456919;32;34644;-83
2022/04/01 00:04:08;;;;;;;;;;;;;;;20.85;45.12;96682.88;4463522;32;33510;-82
2022/04/01 00:06:35;;;;;;;;;;;;;;;21.28;44.16;96679.06;4453028;32;34255;-82
2022/04/01 00:09:03;;;;;;;;;;;;;;;21.36;43.96;96674.94;4454244;32;34511;-82
2022/04/01 00:11:30;;;;;;;;;;;;;;;21.30;44.06;96678.00;4454412;32;34305;-82
2022/04/01 00:13:57;;;;;;;;;;;;;;;21.51;43.52;96680.09;4453251;32;33456;-82
2022/04/01 00:16:25;;;;;;;;;;;;;;;21.51;43.51;96685.37;4464574;32;34967;-82
2022/04/01 00:18:53;;;;;;;;;;;;;;;21.48;43.72;96675.03;4468223;32;34425;-81
2022/04/01 00:21:20;;;;;;;;;;;;;;;21.62;43.36;96675.75;4463546;32;34796;-82
2022/04/01 00:23:47;;;;;;;;;;;;;;;21.71;43.13;96674.25;4453319;32;33220;-82
2022/04/01 00:26:15;;;;;;;;;;;;;;;21.41;43.68;96677.28;4452984;32;34665;-81
2022/04/01 00:28:42;;;;;;;;;;;;;;;21.59;43.34;96673.34;4453263;32;33757;-81
2022/04/01 00:31:09;;;;;;;;;;;;;;;21.67;43.18;96675.44;4467987;32;33647;-80
2022/04/01 00:33:37;;;;;;;;;;;;;;;21.68;43.09;96674.47;4467411;32;34258;-80
2022/04/01 00:36:04;;;;;;;;;;;;;;;21.36;43.86;96669.69;4460843;32;34176;-80
2022/04/01 00:38:31;;;;;;;;;;;;;;;21.43;43.74;96671.91;4452896;32;35283;-80
2022/04/01 00:40:59;;;;;;;;;;;;;;;21.22;44.25;96668.97;4452859;32;34410;-79
2022/04/01 00:43:27;;;;;;;;;;;;;;;21.21;44.33;96662.81;4464304;32;33883;-80
2022/04/01 00:45:54;;;;;;;;;;;;;;;20.82;45.56;96661.16;4453307;32;34157;-80
2022/04/01 00:48:22;;;;;;;;;;;;;;;21.09;44.95;96647.87;4467465;32;34212;-80
2022/04/01 00:50:50;;;;;;;;;;;;;;;21.08;44.94;96651.47;4468034;32;35246;-80
2022/04/01 00:53:17;;;;;;;;;;;;;;;21.07;44.92;96660.34;4465327;32;33206;-80
2022/04/01 00:55:45;;;;;;;;;;;;;;;21.32;44.38;96657.63;4452801;32;34972;-79
2022/04/01 00:58:14;;;;;;;;;;;;;;;21.51;43.83;96661.66;4452913;32;35221;-79
2022/04/01 01:00:42;;;;;;;;;;;;;;;21.38;44.18;96659.88;4456003;32;33769;-80
2022/04/01 01:03:09;;;;;;;;;;;;;;;21.40;44.16;96646.59;4452891;32;33561;-80
2022/04/01 01:05:37;;;;;;;;;;;;;;;21.32;44.19;96657.63;4467691;32;34372;-79
2022/04/01 01:08:05;;;;;;;;;;;;;;;21.37;44.02;96654.75;4468018;32;34394;-80
2022/04/01 01:10:33;;;;;;;;;;;;;;;21.49;43.69;96666.19;4452782;32;34930;-80
2022/04/01 01:13:02;;;;;;;;;;;;;;;21.31;44.11;96663.88;4454904;32;34427;-80
2022/04/01 01:15:29;;;;;;;;;;;;;;;20.72;45.43;96665.38;4462646;32;34316;-80
2022/04/01 01:17:56;;;;;;;;;;;;;;;20.74;45.85;96660.84;4452752;32;34249;-79
2022/04/01 01:20:24;;;;;;;;;;;;;;;21.01;45.23;96666.00;4453641;32;34047;-79
2022/04/01 01:22:53;;;;;;;;;;;;;;;21.20;44.65;96658.50;4454041;32;33224;-78
2022/04/01 01:25:21;;;;;;;;;;;;;;;21.35;44.24;96660.09;4452483;32;35073;-82
2022/04/01 01:27:48;;;;;;;;;;;;;;;21.38;44.14;96667.78;4452393;32;34417;-80
2022/04/01 01:30:15;;;;;;;;;;;;;;;21.46;43.96;96661.16;4453804;32;35002;-82
2022/04/01 01:32:43;;;;;;;;;;;;;;;21.52;43.81;96666.00;4456865;32;34145;-82
2022/04/01 01:35:10;;;;;;;;;;;;;;;21.47;43.96;96657.53;4467321;32;34386;-82
2022/04/01 01:37:38;;;;;;;;;;;;;;;20.94;45.03;96655.06;4462393;32;34078;-82
2022/04/01 01:40:06;;;;;;;;;;;;;;;20.91;45.38;96652.66;4452853;32;34939;-83
2022/04/01 01:42:34;;;;;;;;;;;;;;;20.36;47.01;96665.06;4455709;32;33568;-82
2022/04/01 01:45:01;;;;;;;;;;;;;;;20.22;47.50;96659.88;4463532;32;34050;-81
2022/04/01 01:47:29;;;;;;;;;;;;;;;20.22;47.14;96662.50;4467833;32;34534;-81
2022/04/01 01:55:31;;;;;;;;;;;;;;;20.40;46.76;96666.56;4452330;32;34111;-81
2022/04/01 01:57:59;;;;;;;;;;;;;;;20.21;47.21;96660.00;4453326;32;34147;-81
2022/04/01 02:00:27;;;;;;;;;;;;;;;20.29;47.11;96662.97;4455427;32;34440;-81
2022/04/01 02:02:56;;;;;;;;;;;;;;;20.07;47.27;96658.25;4459243;32;33016;-80
2022/04/01 02:05:23;;;;;;;;;;;;;;;20.40;46.90;96661.28;4452315;32;34000;-81
2022/04/01 02:07:52;;;;;;;;;;;;;;;20.73;46.10;96652.12;4452302;32;34497;-81
2022/04/01 02:10:20;;;;;;;;;;;;;;;20.50;46.51;96661.56;4458919;32;34495;-82
2022/04/01 02:12:47;;;;;;;;;;;;;;;20.74;46.01;96655.59;4464199;32;33226;-81
2022/04/01 02:15:16;;;;;;;;;;;;;;;20.68;46.01;96648.09;4455846;32;34775;-83
2022/04/01 02:17:44;;;;;;;;;;;;;;;20.57;46.24;96647.06;4452988;32;35291;-81
2022/04/01 02:20:11;;;;;;;;;;;;;;;20.69;46.01;96658.53;4443952;32;34982;-82
2022/04/01 02:22:39;;;;;;;;;;;;;;;20.65;46.11;96652.63;4463324;32;33661;-82
2022/04/01 02:25:07;;;;;;;;;;;;;;;20.34;46.80;96659.09;4459381;32;33487;-82
2022/04/01 02:27:34;;;;;;;;;;;;;;;20.09;47.64;96651.12;4452324;32;34055;-81
2022/04/01 02:30:10;;;;;;;;;;;;;;;19.77;48.57;96648.78;4448092;32;33871;-82
2022/04/01 02:32:40;;;;;;;;;;;;;;;20.18;47.27;96637.34;4448634;32;34144;-82
2022/04/01 02:35:09;;;;;;;;;;;;;;;20.38;46.63;96634.25;4463278;32;34661;-82
2022/04/01 02:37:37;;;;;;;;;;;;;;;20.45;46.49;96616.25;4464672;32;34548;-81
2022/04/01 02:40:04;;;;;;;;;;;;;;;20.03;47.41;96620.78;4453427;32;34970;-82
2022/04/01 02:42:32;;;;;;;;;;;;;;;19.03;50.24;96614.94;4463985;32;33831;-82
2022/04/01 02:44:59;;;;;;;;;;;;;;;20.01;47.74;96627.97;4457700;32;33945;-81
2022/04/01 02:47:26;;;;;;;;;;;;;;;20.27;47.04;96633.28;4452169;32;35386;-82
2022/04/01 02:49:54;;;;;;;;;;;;;;;20.56;46.41;96628.72;4451900;32;34929;-82
2022/04/01 02:52:21;;;;;;;;;;;;;;;20.76;45.99;96630.84;4462284;32;33893;-81
2022/04/01 02:54:48;;;;;;;;;;;;;;;20.92;45.40;96624.53;4459579;32;33982;-82
2022/04/01 02:57:16;;;;;;;;;;;;;;;20.24;46.91;96633.50;4451863;32;34006;-82
2022/04/01 02:59:44;;;;;;;;;;;;;;;19.47;48.89;96622.63;4452042;32;35127;-82
2022/04/01 03:02:11;;;;;;;;;;;;;;;18.52;51.45;96628.47;4464422;32;33455;-82
2022/04/01 03:04:39;;;;;;;;;;;;;;;19.21;50.08;96621.69;4466454;32;34971;-82
2022/04/01 03:07:06;;;;;;;;;;;;;;;19.96;47.93;96613.41;4467526;32;33929;-82
2022/04/01 03:09:34;;;;;;;;;;;;;;;19.89;47.90;96618.25;4465671;32;34375;-82
2022/04/01 03:12:02;;;;;;;;;;;;;;;19.40;49.30;96619.59;4462391;32;33472;-82
2022/04/01 03:14:31;;;;;;;;;;;;;;;19.84;48.21;96620.31;4466981;32;34349;-80
2022/04/01 03:17:03;;;;;;;;;;;;;;;20.07;47.64;96626.69;4451584;32;34463;-82
2022/04/01 03:19:31;;;;;;;;;;;;;;;20.33;47.00;96635.50;4458168;32;34138;-82
2022/04/01 03:21:58;;;;;;;;;;;;;;;20.38;46.99;96647.41;4452983;32;34152;-81
2022/04/01 03:24:25;;;;;;;;;;;;;;;19.45;49.15;96641.16;4451743;32;33884;-82
2022/04/01 03:26:53;;;;;;;;;;;;;;;19.68;48.45;96615.22;4464093;32;34198;-82
2022/04/01 03:29:20;;;;;;;;;;;;;;;19.18;49.83;96603.47;4465297;32;35105;-82
2022/04/01 03:31:48;;;;;;;;;;;;;;;19.27;49.82;96605.53;4457296;32;33785;-82
2022/04/01 03:34:17;;;;;;;;;;;;;;;18.86;50.60;96611.56;4460977;32;35098;-82
2022/04/01 03:36:44;;;;;;;;;;;;;;;19.86;48.40;96627.16;4463559;32;34211;-82
2022/04/01 03:39:12;;;;;;;;;;;;;;;20.01;47.95;96625.34;4463381;32;34026;-82
2022/04/01 03:41:40;;;;;;;;;;;;;;;20.29;47.20;96628.75;4456416;32;33214;-81
2022/04/01 03:44:09;;;;;;;;;;;;;;;19.75;48.65;96626.19;4453299;32;33838;-82
2022/04/01 03:46:46;;;;;;;;;;;;;;;19.01;49.99;96624.69;4454322;32;35276;-81
2022/04/01 03:49:17;;;;;;;;;;;;;;;19.12;50.22;96625.72;4464259;32;34059;-80
2022/04/01 03:51:46;;;;;;;;;;;;;;;20.32;47.02;96625.91;4439422;32;32646;-81
2022/04/01 03:54:13;;;;;;;;;;;;;;;20.28;47.15;96630.53;4437164;32;34249;-81
2022/04/01 03:56:44;;;;;;;;;;;;;;;19.56;49.04;96637.00;4449023;32;33920;-82
2022/04/01 03:59:14;;;;;;;;;;;;;;;19.20;49.75;96633.94;4466709;32;32716;-81
2022/04/01 04:01:43;;;;;;;;;;;;;;;19.88;48.22;96632.31;4441219;32;33125;-81
2022/04/01 04:04:11;;;;;;;;;;;;;;;20.32;46.95;96637.28;4456643;32;34211;-81
2022/04/01 04:06:38;;;;;;;;;;;;;;;20.64;46.22;96623.75;4454508;32;33911;-82
2022/04/01 04:09:05;;;;;;;;;;;;;;;20.13;47.07;96628.94;4450594;32;34315;-83
2022/04/01 04:11:34;;;;;;;;;;;;;;;20.02;47.52;96628.78;4458054;32;33438;-82
2022/04/01 04:14:02;;;;;;;;;;;;;;;19.78;47.83;96604.97;4464171;32;34242;-81
2022/04/01 04:16:32;;;;;;;;;;;;;;;19.65;48.20;96594.37;4460672;32;34373;-80
2022/04/01 04:19:00;;;;;;;;;;;;;;;19.65;48.39;96589.13;4441585;32;34344;-82
2022/04/01 04:21:31;;;;;;;;;;;;;;;20.31;46.89;96590.88;4444472;32;33902;-82
2022/04/01 04:23:59;;;;;;;;;;;;;;;20.47;46.47;96589.84;4456570;32;33972;-85
2022/04/01 04:26:42;;;;;;;;;;;;;;;20.66;45.94;96587.66;4464075;32;34486;-83
2022/04/01 04:29:11;;;;;;;;;;;;;;;20.65;45.94;96591.25;4440436;32;34023;-81
2022/04/01 04:31:42;;;;;;;;;;;;;;;20.67;45.91;96589.34;4460706;32;32034;-82
2022/04/01 04:34:10;;;;;;;;;;;;;;;20.65;45.89;96580.72;4450801;32;35485;-83
2022/04/01 04:36:38;;;;;;;;;;;;;;;20.93;45.10;96586.69;4448680;32;35263;-82
2022/04/01 04:39:07;;;;;;;;;;;;;;;20.94;44.97;96591.00;4456106;32;34256;-81
2022/04/01 04:41:34;;;;;;;;;;;;;;;20.61;45.53;96602.94;4459298;32;33437;-80
2022/04/01 04:44:03;;;;;;;;;;;;;;;20.72;45.34;96607.44;4450741;32;33893;-81
2022/04/01 04:46:33;;;;;;;;;;;;;;;20.61;45.79;96605.56;4463996;32;34111;-81
2022/04/01 04:49:00;;;;;;;;;;;;;;;20.13;46.88;96615.78;4459035;32;34392;-81
2022/04/01 04:51:28;;;;;;;;;;;;;;;20.19;46.81;96620.62;4453026;32;33723;-81
2022/04/01 04:53:59;;;;;;;;;;;;;;;20.08;47.07;96618.72;4462301;32;33446;-81
2022/04/01 04:56:27;;;;;;;;;;;;;;;20.46;46.11;96612.69;4445849;32;34879;-80
2022/04/01 04:58:57;;;;;;;;;;;;;;;20.61;45.67;96618.72;4468522;32;33653;-82
2022/04/01 05:01:39;;;;;;;;;;;;;;;20.86;45.14;96607.34;4463904;32;34108;-82
2022/04/01 05:04:13;;;;;;;;;;;;;;;20.63;45.74;96606.28;4440704;32;34342;-81
2022/04/01 05:06:49;;;;;;;;;;;;;;;20.29;46.39;96626.13;4438203;32;32877;-82
2022/04/01 05:09:25;;;;;;;;;;;;;;;19.60;48.26;96620.09;4437360;32;34017;-81
2022/04/01 05:11:57;;;;;;;;;;;;;;;19.34;48.99;96627.00;4437546;32;33368;-81
2022/04/01 05:14:31;;;;;;;;;;;;;;;20.18;46.90;96632.09;4436385;32;34006;-81
2022/04/01 05:17:05;;;;;;;;;;;;;;;20.25;46.69;96630.75;4436892;32;34033;-82
2022/04/01 05:19:36;;;;;;;;;;;;;;;20.42;46.09;96619.09;4436081;32;34901;-82
2022/04/01 05:22:08;;;;;;;;;;;;;;;20.22;46.45;96628.31;4448384;32;33118;-85
2022/04/01 05:24:40;;;;;;;;;;;;;;;20.30;46.31;96633.91;4451521;32;34186;-82
2022/04/01 05:27:09;;;;;;;;;;;;;;;20.23;46.48;96635.28;4451577;32;34077;-81
2022/04/01 05:29:42;;;;;;;;;;;;;;;19.71;47.54;96630.78;4451351;32;33912;-82
2022/04/01 05:32:10;;;;;;;;;;;;;;;19.28;48.63;96628.25;4449924;32;33420;-82
2022/04/01 05:34:39;;;;;;;;;;;;;;;18.47;50.61;96635.78;4450811;32;34865;-82
2022/04/01 05:37:06;;;;;;;;;;;;;;;18.92;49.24;96620.84;4452721;32;35125;-81
2022/04/01 05:39:35;;;;;;;;;;;;;;;18.60;49.37;96622.75;4451248;32;35016;-82
2022/04/01 05:42:05;;;;;;;;;;;;;;;17.33;52.80;96628.25;4452660;32;34482;-81
2022/04/01 05:44:35;;;;;;;;;;;;;;;17.35;53.09;96634.28;4439535;32;34353;-82
2022/04/01 05:47:03;;;;;;;;;;;;;;;17.14;54.16;96630.19;4450996;32;34505;-83
2022/04/01 05:49:31;;;;;;;;;;;;;;;17.23;53.37;96621.84;4450586;32;34850;-82
2022/04/01 05:51:59;;;;;;;;;;;;;;;15.88;57.22;96641.03;4452902;32;33728;-81
2022/04/01 05:54:27;;;;;;;;;;;;;;;17.33;52.69;96628.25;4451212;32;35123;-82
2022/04/01 05:56:55;;;;;;;;;;;;;;;16.72;54.30;96634.13;4450694;32;34130;-82
2022/04/01 05:59:22;;;;;;;;;;;;;;;16.98;53.80;96635.41;4450653;32;34081;-81
2022/04/01 06:02:03;;;;;;;;;;;;;;;17.55;52.17;96646.28;4451336;32;34321;-81
2022/04/01 06:04:46;;;;;;;;;;;;;;;17.26;52.51;96640.00;4450731;32;34995;-81
2022/04/01 06:07:33;;;;;;;;;;;;;;;16.96;52.64;96634.63;4452503;32;35801;-82
2022/04/01 06:10:11;;;;;;;;;;;;;;;15.87;55.76;96640.16;4452073;32;34224;-81
2022/04/01 06:12:57;;;;;;;;;;;;;;;17.50;50.99;96633.44;4452529;32;32104;-82
2022/04/01 06:15:30;;;;;;;;;;;;;;;17.48;50.84;96621.34;4450842;32;33298;-82
2022/04/01 06:18:11;;;;;;;;;;;;;;;16.66;53.09;96631.81;4452443;32;34618;-82
2022/04/01 06:20:40;;;;;;;;;;;;;;;16.77;52.90;96638.22;4451944;32;34083;-82
2022/04/01 06:23:07;;;;;;;;;;;;;;;17.30;51.59;96631.03;4452635;32;33371;-81
2022/04/01 06:25:38;;;;;;;;;;;;;;;17.28;50.84;96625.06;4452527;32;34013;-81
2022/04/01 06:28:26;;;;;;;;;;;;;;;16.85;52.36;96629.12;4450638;32;34966;-82
2022/04/01 06:30:55;;;;;;;;;;;;;;;16.85;52.66;96635.19;4452087;32;34419;-82
2022/04/01 06:33:35;;;;;;;;;;;;;;;17.13;51.61;96633.75;4450978;32;33629;-82
2022/04/01 06:36:03;;;;;;;;;;;;;;;17.62;50.23;96642.38;4452300;32;34081;-82
2022/04/01 06:38:37;;;;;;;;;;;;;;;17.79;49.78;96630.97;4452328;32;33878;-82
2022/04/01 06:41:08;;;;;;;;;;;;;;;16.97;51.95;96645.03;4452275;32;33926;-81
2022/04/01 06:43:36;;;;;;;;;;;;;;;17.24;51.17;96644.50;4450937;32;33317;-82
2022/04/01 06:46:08;;;;;;;;;;;;;;;17.33;51.02;96643.97;4450928;32;34060;-82
2022/04/01 06:48:36;;;;;;;;;;;;;;;17.02;51.83;96637.78;4452104;32;34126;-82
2022/04/01 06:51:05;;;;;;;;;;;;;;;17.66;50.44;96635.19;4452148;32;31875;-82
2022/04/01 06:53:36;;;;;;;;;;;;;;;17.18;51.85;96642.19;4452268;32;31769;-82
2022/04/01 06:56:10;;;;;;;;;;;;;;;16.95;52.41;96640.81;4452015;32;34605;-81
2022/04/01 06:58:38;;;;;;;;;;;;;;;17.59;50.89;96641.72;4450346;32;34111;-81
2022/04/01 07:01:05;;;;;;;;;;;;;;;17.56;51.24;96637.47;4451824;32;34178;-82
2022/04/01 07:03:35;;;;;;;;;;;;;;;17.09;52.55;96635.69;4454179;32;33279;-81
2022/04/01 07:06:04;;;;;;;;;;;;;;;16.95;53.12;96632.97;4453681;32;33876;-81
2022/04/01 07:08:31;;;;;;;;;;;;;;;17.30;52.35;96633.66;4467227;32;34557;-82
2022/04/01 07:10:59;;;;;;;;;;;;;;;16.44;55.03;96646.03;4453141;32;34577;-82
2022/04/01 07:13:26;;;;;;;;;;;;;;;15.61;57.85;96657.06;4467090;32;33111;-82
2022/04/01 07:15:54;;;;;;;;;;;;;;;16.14;55.21;96663.22;4467143;32;34311;-82
2022/04/01 07:18:22;;;;;;;;;;;;;;;15.15;57.48;96659.19;4467274;32;34761;-81
2022/04/01 07:20:49;;;;;;;;;;;;;;;14.72;57.76;96662.87;4467135;32;34035;-82
2022/04/01 07:23:16;;;;;;;;;;;;;;;16.43;52.73;96660.00;4453003;32;34326;-82
2022/04/01 07:25:44;;;;;;;;;;;;;;;16.00;53.67;96661.31;4452921;32;34018;-81
2022/04/01 07:28:11;;;;;;;;;;;;;;;14.92;55.88;96660.22;4466958;32;35229;-82
2022/04/01 07:30:39;;;;;;;;;;;;;;;15.74;53.20;96659.97;4467424;32;33851;-82
2022/04/01 07:33:06;;;;;;;;;;;;;;;15.22;54.56;96654.53;4467088;32;32546;-82
2022/04/01 07:35:34;;;;;;;;;;;;;;;14.39;56.80;96660.75;4453499;32;34649;-81
2022/04/01 07:38:03;;;;;;;;;;;;;;;14.97;55.52;96657.44;4467312;32;35266;-82
2022/04/01 07:40:31;;;;;;;;;;;;;;;15.08;54.68;96657.78;4466723;32;34205;-81
2022/04/01 07:42:58;;;;;;;;;;;;;;;15.30;53.73;96665.47;4466977;32;34112;-82
2022/04/01 07:45:25;;;;;;;;;;;;;;;13.93;56.73;96667.03;4466931;32;33406;-82
2022/04/01 07:47:52;;;;;;;;;;;;;;;13.96;57.03;96672.97;4466739;32;33993;-82
2022/04/01 07:50:20;;;;;;;;;;;;;;;14.22;57.04;96678.87;4466710;32;33371;-81
2022/04/01 07:52:47;;;;;;;;;;;;;;;13.80;57.98;96672.75;4467062;32;33089;-81
2022/04/01 07:55:16;;;;;;;;;;;;;;;13.69;57.58;96668.88;4466265;32;35060;-82
2022/04/01 07:57:43;;;;;;;;;;;;;;;14.29;56.48;96672.50;4467125;32;34820;-82
2022/04/01 08:00:13;;;;;;;;;;;;;;;13.82;57.51;96675.28;4468840;32;35024;-82
2022/04/01 08:02:41;;;;;;;;;;;;;;;13.75;57.03;96684.25;4468654;32;33073;-81
2022/04/01 08:05:08;;;;;;;;;;;;;;;13.47;58.12;96684.50;4468875;32;33844;-81
2022/04/01 08:07:36;;;;;;;;;;;;;;;13.90;57.04;96682.78;4468731;32;34529;-81
2022/04/01 08:10:04;;;;;;;;;;;;;;;14.51;55.28;96688.13;4468154;32;35307;-81
2022/04/01 08:12:39;;;;;;;;;;;;;;;14.52;55.73;96697.62;4468759;32;33209;-81
2022/04/01 08:15:07;;;;;;;;;;;;;;;14.54;55.71;96699.25;4469038;32;35126;-81
2022/04/01 08:17:34;;;;;;;;;;;;;;;13.55;58.12;96698.06;4468608;32;34130;-81
2022/04/01 08:20:02;;;;;;;;;;;;;;;13.52;58.42;96696.41;4454670;32;34196;-82
2022/04/01 08:22:30;;;;;;;;;;;;;;;13.87;56.81;96699.41;4468718;32;34254;-82
2022/04/01 08:24:57;;;;;;;;;;;;;;;12.87;60.72;96702.28;4454213;32;34438;-81
2022/04/01 08:27:24;;;;;;;;;;;;;;;13.92;57.36;96709.63;4468629;32;34357;-81
2022/04/01 08:29:57;;;;;;;;;;;;;;;13.83;57.32;96709.09;4468591;32;34735;-81
2022/04/01 08:32:24;;;;;;;;;;;;;;;13.67;58.15;96713.19;4468585;32;32955;-81
2022/04/01 08:34:51;;;;;;;;;;;;;;;13.28;58.92;96721.59;4468397;32;34176;-81
2022/04/01 08:37:18;;;;;;;;;;;;;;;14.31;55.93;96720.19;4468483;32;34375;-82
2022/04/01 08:39:53;;;;;;;;;;;;;;;13.00;59.27;96726.94;4468323;32;35031;-81
2022/04/01 08:42:21;;;;;;;;;;;;;;;13.33;58.25;96731.84;4468466;32;34310;-81
2022/04/01 08:44:51;;;;;;;;;;;;;;;12.63;60.59;96732.59;4468549;32;34289;-81
2022/04/01 08:47:18;;;;;;;;;;;;;;;13.05;58.78;96735.44;4468420;32;33966;-81
2022/04/01 08:49:46;;;;;;;;;;;;;;;12.60;60.59;96740.50;4454574;32;34714;-81
2022/04/01 08:52:13;;;;;;;;;;;;;;;12.66;60.20;96750.69;4468369;32;34011;-81
2022/04/01 08:54:41;;;;;;;;;;;;;;;11.82;63.23;96758.56;4454657;32;33387;-81
2022/04/01 08:57:08;;;;;;;;;;;;;;;13.25;58.21;96746.91;4468414;32;34241;-81
2022/04/01 08:59:37;;;;;;;;;;;;;;;13.55;57.77;96745.75;4454056;32;34606;-81
2022/04/01 09:02:05;;;;;;;;;;;;;;;13.16;59.16;96748.06;4454317;32;33625;-81
2022/04/01 09:04:33;;;;;;;;;;;;;;;12.44;60.72;96758.34;4468271;32;34362;-81
2022/04/01 09:07:10;;;;;;;;;;;;;;;13.30;58.20;96748.44;4454016;32;35065;-81
2022/04/01 09:09:37;;;;;;;;;;;;;;;13.14;57.58;96745.53;4467353;32;33444;-81
2022/04/01 09:12:05;;;;;;;;;;;;;;;13.26;57.39;96749.47;4454108;32;32796;-81
2022/04/01 09:14:33;;;;;;;;;;;;;;;12.93;59.04;96754.06;4468187;32;34103;-81
2022/04/01 09:17:03;;;;;;;;;;;;;;;13.09;58.69;96747.41;4468232;32;35235;-81
2022/04/01 09:19:31;;;;;;;;;;;;;;;12.43;59.40;96753.22;4468211;32;34215;-81
2022/04/01 09:22:14;;;;;;;;;;;;;;;13.05;58.78;96750.19;4454249;32;32954;-81
2022/04/01 09:24:52;;;;;;;;;;;;;;;12.59;60.62;96760.44;4468002;32;34566;-81
2022/04/01 09:27:19;;;;;;;;;;;;;;;12.77;58.89;96761.56;4454110;32;34761;-81
2022/04/01 09:29:46;;;;;;;;;;;;;;;12.28;60.74;96758.00;4468144;32;34661;-81
2022/04/01 09:32:13;;;;;;;;;;;;;;;12.39;60.26;96757.66;4467954;32;34005;-81
2022/04/01 09:34:41;;;;;;;;;;;;;;;12.23;61.40;96769.44;4468086;32;34100;-81
2022/04/01 09:37:08;;;;;;;;;;;;;;;12.99;58.37;96759.03;4467855;32;34296;-81
2022/04/01 09:39:35;;;;;;;;;;;;;;;12.77;58.39;96765.94;4467823;32;34891;-81
2022/04/01 09:42:03;;;;;;;;;;;;;;;12.53;57.93;96763.22;4453777;32;33104;-81
2022/04/01 09:44:34;;;;;;;;;;;;;;;11.30;62.38;96770.50;4453809;32;33802;-81
2022/04/01 09:47:03;;;;;;;;;;;;;;;12.53;59.07;96773.62;4453922;32;34003;-81
2022/04/01 09:49:36;;;;;;;;;;;;;;;13.23;57.41;96764.28;4467800;32;35091;-81
2022/04/01 09:52:13;;;;;;;;;;;;;;;13.07;57.94;96775.25;4453752;32;34139;-81
2022/04/01 09:54:51;;;;;;;;;;;;;;;13.21;57.89;96769.53;4467879;32;34242;-81
2022/04/01 09:57:19;;;;;;;;;;;;;;;11.93;60.89;96772.09;4468023;32;34963;-81
2022/04/01 09:59:47;;;;;;;;;;;;;;;12.27;60.25;96777.06;4468474;32;34184;-81
2022/04/01 10:02:15;;;;;;;;;;;;;;;11.39;62.48;96778.00;4468328;32;33511;-81
2022/04/01 10:04:42;;;;;;;;;;;;;;;11.67;62.59;96783.25;4467763;32;34826;-81
2022/04/01 10:07:10;;;;;;;;;;;;;;;12.19;60.08;96784.28;4454022;32;34061;-81
2022/04/01 10:09:37;;;;;;;;;;;;;;;12.13;60.93;96782.72;4467901;32;34605;-81
2022/04/01 10:12:25;;;;;;;;;;;;;;;12.05;61.52;96782.13;4467721;32;33484;-81
2022/04/01 10:14:57;;;;;;;;;;;;;;;11.68;61.87;96783.22;4453657;32;34101;-81
2022/04/01 10:17:29;;;;;;;;;;;;;;;11.91;61.27;96787.72;4453488;32;34896;-81
2022/04/01 10:19:57;;;;;;;;;;;;;;;12.58;60.16;96787.34;4453476;32;34087;-81
2022/04/01 10:22:24;;;;;;;;;;;;;;;12.01;60.86;96790.91;4453642;32;34059;-82
2022/04/01 10:24:55;;;;;;;;;;;;;;;11.77;61.18;96795.06;4453383;32;34197;-80
2022/04/01 10:27:23;;;;;;;;;;;;;;;12.38;59.14;96800.13;4467603;32;34688;-81
2022/04/01 10:29:51;;;;;;;;;;;;;;;12.34;59.16;96814.94;4453821;32;33944;-81
2022/04/01 10:32:21;;;;;;;;;;;;;;;12.04;59.45;96806.38;4453483;32;33526;-81
2022/04/01 10:34:48;;;;;;;;;;;;;;;12.47;58.65;96810.22;4467500;32;35119;-81
2022/04/01 10:37:16;;;;;;;;;;;;;;;12.15;59.06;96806.87;4467675;32;34343;-81
2022/04/01 10:40:07;;;;;;;;;;;;;;;12.30;59.70;96815.94;4467360;32;34916;-81
2022/04/01 10:42:38;;;;;;;;;;;;;;;12.00;59.85;96809.13;4459530;32;33567;-81
2022/04/01 10:45:08;;;;;;;;;;;;;;;12.58;57.68;96821.13;4467603;32;34104;-81
2022/04/01 10:53:59;;;;;;;;;;;;;;;11.62;61.89;96831.84;4467599;32;34145;-81
2022/04/01 10:56:27;;;;;;;;;;;;;;;11.93;60.33;96829.22;4467619;32;34907;-81
2022/04/01 10:59:13;;;;;;;;;;;;;;;10.75;64.30;96847.16;4467538;32;35262;-81
2022/04/01 11:01:46;;;;;;;;;;;;;;;11.93;60.29;96835.28;4467340;32;34286;-81
2022/04/01 11:04:13;;;;;;;;;;;;;;;11.96;60.53;96833.47;4453486;32;32824;-81
2022/04/01 11:06:50;;;;;;;;;;;;;;;11.87;60.73;96832.88;4467296;32;34368;-81
2022/04/01 11:09:38;;;;;;;;;;;;;;;12.45;59.49;96838.00;4467287;32;34495;-81
2022/04/01 11:12:14;;;;;;;;;;;;;;;12.37;59.81;96833.06;4467201;32;34080;-81
2022/04/01 11:17:55;;;;;;;;;;;;;;;13.38;56.29;96831.44;4457069;32;34376;-81
2022/04/01 11:20:22;;;;;;;;;;;;;;;12.36;60.28;96836.56;4467163;32;34338;-81
2022/04/01 11:23:01;;;;;;;;;;;;;;;12.49;60.43;96834.41;4465021;32;33637;-81
2022/04/01 11:25:31;;;;;;;;;;;;;;;11.99;61.84;96833.41;4452388;32;34076;-81
2022/04/01 11:28:11;;;;;;;;;;;;;;;11.51;62.47;96832.13;4459788;32;33609;-81
2022/04/01 11:30:53;;;;;;;;;;;;;;;11.54;63.73;96836.41;4450142;32;34408;-81
2022/04/01 11:33:21;;;;;;;;;;;;;;;11.49;61.79;96831.34;4451827;32;34725;-81
2022/04/01 11:35:53;;;;;;;;;;;;;;;11.98;60.93;96832.53;4453272;32;33432;-81
2022/04/01 11:38:21;;;;;;;;;;;;;;;11.80;62.08;96833.06;4453162;32;34973;-81
2022/04/01 11:40:50;;;;;;;;;;;;;;;12.25;59.69;96835.19;4451737;32;34360;-82
2022/04/01 11:43:18;;;;;;;;;;;;;;;12.77;59.02;96833.53;4451881;32;34048;-81
2022/04/01 11:45:51;;;;;;;;;;;;;;;12.17;60.20;96830.25;4453062;32;34132;-81
2022/04/01 11:48:19;;;;;;;;;;;;;;;12.61;58.25;96828.84;4452946;32;33896;-81
2022/04/01 11:50:47;;;;;;;;;;;;;;;12.61;58.67;96828.84;4452870;32;34401;-81
2022/04/01 11:53:17;;;;;;;;;;;;;;;12.14;60.61;96828.56;4452965;32;34556;-82
2022/04/01 11:55:45;;;;;;;;;;;;;;;11.96;61.64;96829.13;4452862;32;33326;-81
2022/04/01 11:58:12;;;;;;;;;;;;;;;12.14;59.99;96820.78;4451705;32;33798;-81
2022/04/01 12:00:40;;;;;;;;;;;;;;;12.24;60.50;96825.72;4453127;32;34341;-81
2022/04/01 12:03:11;;;;;;;;;;;;;;;12.34;61.29;96830.53;4451470;32;34127;-82
2022/04/01 12:05:39;;;;;;;;;;;;;;;12.18;61.67;96818.94;4453238;32;32165;-81
2022/04/01 12:11:04;;;;;;;;;;;;;;;12.41;60.91;96828.59;4453094;32;34051;-82
2022/04/01 12:13:31;;;;;;;;;;;;;;;12.22;61.28;96820.53;4453019;32;35108;-81
2022/04/01 12:15:59;;;;;;;;;;;;;;;11.43;62.50;96829.75;4452640;32;34259;-82
2022/04/01 12:18:28;;;;;;;;;;;;;;;12.31;59.69;96824.59;4453244;32;34035;-83
2022/04/01 12:20:59;;;;;;;;;;;;;;;12.48;61.79;96827.50;4439036;32;34266;-84
2022/04/01 12:23:30;;;;;;;;;;;;;;;11.73;63.23;96831.53;4438726;32;34771;-85
2022/04/01 12:25:58;;;;;;;;;;;;;;;12.28;61.36;96835.09;4438998;32;32932;-84
2022/04/01 12:28:26;;;;;;;;;;;;;;;12.06;61.50;96842.69;4438997;32;34311;-85
2022/04/01 12:30:55;;;;;;;;;;;;;;;11.92;61.24;96848.28;4438641;32;34053;-84
2022/04/01 12:33:30;;;;;;;;;;;;;;;12.31;59.43;96845.37;4462363;32;34041;-84
2022/04/01 12:36:07;;;;;;;;;;;;;;;11.71;61.24;96851.50;4468415;32;33496;-84
2022/04/01 12:38:35;;;;;;;;;;;;;;;12.00;60.76;96851.50;4468139;32;34159;-84
2022/04/01 12:41:06;;;;;;;;;;;;;;;12.27;60.39;96856.75;4449930;32;33926;-84
2022/04/01 12:43:47;;;;;;;;;;;;;;;13.26;57.11;96857.88;4454669;32;33788;-83
2022/04/01 12:46:15;;;;;;;;;;;;;;;12.93;57.20;96860.69;4438589;32;34070;-84
2022/04/01 12:48:45;;;;;;;;;;;;;;;12.68;57.86;96865.00;4438696;32;34006;-84
2022/04/01 12:51:16;;;;;;;;;;;;;;;12.10;59.30;96857.28;4456741;32;34430;-84
2022/04/01 12:53:51;;;;;;;;;;;;;;;12.07;60.21;96863.41;4468531;32;34230;-84
2022/04/01 12:56:22;;;;;;;;;;;;;;;10.92;63.10;96876.13;4468166;32;33179;-84
2022/04/01 12:58:50;;;;;;;;;;;;;;;12.45;59.06;96864.00;4444041;32;784507;-84
2022/04/01 13:01:18;;;;;;;;;;;;;;;11.69;59.13;96862.75;4463044;32;34291;-85
2022/04/01 13:03:51;;;;;;;;;;;;;;;11.79;60.99;96858.16;4439307;32;33836;-84
2022/04/01 13:06:20;;;;;;;;;;;;;;;11.93;60.19;96868.16;4452845;32;33168;-84
2022/04/01 13:08:47;;;;;;;;;;;;;;;11.53;60.46;96877.06;4452752;32;34813;-84
2022/04/01 13:11:15;;;;;;;;;;;;;;;11.40;61.03;96886.06;4442374;32;35183;-84
2022/04/01 13:13:50;;;;;;;;;;;;;;;10.85;62.93;96890.09;4467932;32;34342;-84
2022/04/01 13:16:17;;;;;;;;;;;;;;;11.07;62.37;96893.88;4453789;32;34121;-84
2022/04/01 13:18:45;;;;;;;;;;;;;;;11.34;61.31;96892.28;4457595;32;35038;-82